Disclaimer

Please do not use the information listed here in-flight or in-navigation, as they are not provided to us by the airports but are provided by volunteers, so they might be outdated.

Search


Regions


Airport information page

Radio informations:
Automatic Terminal Information Service (ATIS) - 118.65 MHz

Airport informations:
Latitude: 30° 33' 22.29" N
Longitude: 049° 09' 06.77" E
Elevation: 8 feet - 2 meters
Operating hours: From sunrise to sunset (SR-SS)
Operating agency: Civil government, landing fees and diplomatic clearance may be required
Timezone: UTC+3:30
Fuel: Jet A1, without icing nhibitor.

Runway information:
14/32 - 8874 x 148 feet< - >2705 x 45 meters

Recent METARs:
OIAM 122000Z 32006KT CAVOK 18/16 Q1017
OIAM 122100Z 32008KT CAVOK 18/15 Q1017
OIAM 122200Z 33006KT CAVOK 17/15 Q1017

Airport on the map: